Time;durP1;ratioP1;P1;durP2;ratioP2;P2;SDS_P1;SDS_P2;PMS_P1;PMS_P2;Temp;Humidity;BMP_temperature;BMP_pressure;BME280_temperature;BME280_humidity;BME280_pressure;Samples;Min_cycle;Max_cycle;Signal;HPM_P1;HPM_P2
2022/08/01 00:00:37;;;;;;;18.17;11.53;;;20.10;99.90;;;;;;5018702;28;20219;-52
2022/08/01 00:03:04;;;;;;;20.67;11.87;;;20.00;99.90;;;;;;5017352;28;20209;-51
2022/08/01 00:05:31;;;;;;;14.17;10.73;;;20.10;99.90;;;;;;5019506;28;20247;-51
2022/08/01 00:07:59;;;;;;;16.17;10.70;;;20.10;99.90;;;;;;5019561;28;20235;-52
2022/08/01 00:10:26;;;;;;;13.80;9.10;;;20.20;99.90;;;;;;5014624;28;20389;-51
2022/08/01 00:12:54;;;;;;;12.13;8.07;;;20.20;99.90;;;;;;5017768;28;20223;-52
2022/08/01 00:15:25;;;;;;;12.27;7.73;;;20.20;99.90;;;;;;5015450;28;20210;-50
2022/08/01 00:17:54;;;;;;;11.20;7.43;;;20.20;99.90;;;;;;5018835;28;20223;-51
2022/08/01 00:20:21;;;;;;;10.53;6.70;;;20.30;99.90;;;;;;5019004;28;20300;-51
2022/08/01 00:22:50;;;;;;;10.50;7.00;;;20.40;99.90;;;;;;5018875;28;20607;-51
2022/08/01 00:25:17;;;;;;;10.13;7.10;;;20.50;99.90;;;;;;5015912;28;20208;-50
2022/08/01 00:27:44;;;;;;;12.83;7.43;;;20.50;99.90;;;;;;5018941;28;20277;-51
2022/08/01 00:30:15;;;;;;;9.93;6.53;;;20.40;99.90;;;;;;5018184;28;20314;-51
2022/08/01 00:32:43;;;;;;;9.07;6.43;;;20.30;99.90;;;;;;5011896;28;20619;-51
2022/08/01 00:35:11;;;;;;;9.43;7.10;;;20.40;99.90;;;;;;5016165;28;20204;-50
2022/08/01 00:37:38;;;;;;;9.90;6.40;;;20.40;99.90;;;;;;5019988;28;20209;-51
2022/08/01 00:40:06;;;;;;;8.57;6.70;;;20.50;99.90;;;;;;5017348;28;20661;-50
2022/08/01 00:42:36;;;;;;;8.57;6.10;;;20.50;99.90;;;;;;5018377;28;20200;-51
2022/08/01 00:45:09;;;;;;;9.17;6.83;;;20.40;99.90;;;;;;5017678;28;20259;-50
2022/08/01 00:47:39;;;;;;;12.60;6.73;;;20.20;99.90;;;;;;5017725;28;20225;-51
2022/08/01 00:50:10;;;;;;;9.97;6.70;;;20.30;99.90;;;;;;5017138;28;20623;-51
2022/08/01 00:52:40;;;;;;;9.87;6.80;;;20.30;99.90;;;;;;5018970;28;20208;-52
2022/08/01 00:55:09;;;;;;;11.03;7.03;;;20.20;99.90;;;;;;5019757;28;20240;-51
2022/08/01 00:57:43;;;;;;;9.47;6.83;;;20.20;99.90;;;;;;5018588;28;20286;-51
2022/08/01 01:00:30;;;;;;;9.40;6.53;;;20.30;99.90;;;;;;5021343;28;20296;-52
2022/08/01 01:03:17;;;;;;;10.97;6.27;;;20.20;99.90;;;;;;5021680;28;20610;-52
2022/08/01 01:06:19;;;;;;;12.40;6.13;;;20.20;99.90;;;;;;5022634;28;20674;-51
2022/08/01 01:09:03;;;;;;;8.13;6.00;;;20.30;99.90;;;;;;5022446;28;20693;-51
2022/08/01 01:11:39;;;;;;;6.70;5.30;;;20.30;99.90;;;;;;5021469;28;20247;-51
2022/08/01 01:14:13;;;;;;;8.63;5.90;;;20.30;99.90;;;;;;5022480;28;20205;-50
2022/08/01 01:16:42;;;;;;;8.53;5.97;;;20.20;99.90;;;;;;5021954;28;20308;-51
2022/08/01 01:19:16;;;;;;;8.80;5.70;;;20.30;99.90;;;;;;5021256;28;20216;-49
2022/08/01 01:21:49;;;;;;;9.43;5.40;;;20.30;99.90;;;;;;5022099;28;20216;-51
2022/08/01 01:24:47;;;;;;;7.90;6.40;;;20.40;99.90;;;;;;5022178;28;20200;-51
2022/08/01 01:27:42;;;;;;;8.87;5.67;;;20.30;99.90;;;;;;5018727;28;20220;-51
2022/08/01 01:30:10;;;;;;;6.90;5.03;;;20.20;99.90;;;;;;5018738;28;20230;-51
2022/08/01 01:32:48;;;;;;;7.57;5.13;;;20.10;99.90;;;;;;5036228;28;20722;-51
2022/08/01 01:35:24;;;;;;;13.20;6.37;;;20.10;99.90;;;;;;5021367;28;20206;-51
2022/08/01 01:37:58;;;;;;;10.53;6.20;;;20.10;99.90;;;;;;5021931;28;20209;-50
2022/08/01 01:40:27;;;;;;;8.70;5.80;;;20.00;99.90;;;;;;5021245;28;20209;-51
2022/08/01 01:42:56;;;;;;;9.33;6.23;;;20.10;99.90;;;;;;5021281;28;20209;-51
2022/08/01 01:45:28;;;;;;;9.17;5.70;;;20.10;99.90;;;;;;5021423;28;20248;-51
2022/08/01 01:47:56;;;;;;;8.20;5.90;;;20.10;99.90;;;;;;5017169;28;20719;-52
2022/08/01 01:50:24;;;;;;;8.27;5.43;;;20.30;99.90;;;;;;5020881;28;20243;-50
2022/08/01 01:52:53;;;;;;;7.57;5.57;;;20.30;99.90;;;;;;5017891;28;20292;-52
2022/08/01 01:55:22;;;;;;;8.63;5.70;;;20.20;99.90;;;;;;5028488;28;20230;-51
2022/08/01 01:57:52;;;;;;;12.93;6.47;;;20.30;99.90;;;;;;5020757;28;20212;-50
2022/08/01 02:00:19;;;;;;;7.57;5.23;;;20.20;99.90;;;;;;5015154;28;20204;-51
2022/08/01 02:02:47;;;;;;;9.47;5.50;;;20.30;99.90;;;;;;5017627;28;20208;-51
2022/08/01 02:05:14;;;;;;;9.37;6.00;;;20.20;99.90;;;;;;5020632;28;20209;-52
2022/08/01 02:07:45;;;;;;;8.97;6.77;;;20.10;99.90;;;;;;5021181;28;20216;-52
2022/08/01 02:10:17;;;;;;;13.37;6.47;;;20.00;99.90;;;;;;5016095;28;20238;-52
2022/08/01 02:12:48;;;;;;;7.13;5.30;;;20.00;99.90;;;;;;5020177;28;20208;-52
2022/08/01 02:15:17;;;;;;;9.30;6.57;;;20.10;99.90;;;;;;5021402;28;20200;-51
2022/08/01 02:17:48;;;;;;;8.23;5.10;;;20.00;99.90;;;;;;5017588;28;20215;-50
2022/08/01 02:20:16;;;;;;;10.80;5.87;;;20.00;99.90;;;;;;5021548;28;20244;-51
2022/08/01 02:22:51;;;;;;;8.60;6.07;;;20.10;99.90;;;;;;5021034;28;20224;-50
2022/08/01 02:25:31;;;;;;;8.87;5.43;;;20.10;99.90;;;;;;5021647;28;20243;-51
2022/08/01 02:28:27;;;;;;;10.63;6.30;;;20.10;99.90;;;;;;5020653;28;20247;-50
2022/08/01 02:31:11;;;;;;;10.10;6.00;;;20.20;99.90;;;;;;5020266;28;20210;-50
2022/08/01 02:33:44;;;;;;;10.50;5.93;;;20.10;99.90;;;;;;5020876;28;20213;-51
2022/08/01 02:36:13;;;;;;;12.70;5.87;;;20.10;99.90;;;;;;5019099;28;20612;-52
2022/08/01 02:39:03;;;;;;;9.23;5.60;;;20.00;99.90;;;;;;5020678;28;20213;-50
2022/08/01 02:41:33;;;;;;;8.13;5.40;;;20.00;99.90;;;;;;5020159;28;20587;-52
2022/08/01 02:44:04;;;;;;;8.77;5.40;;;20.00;99.90;;;;;;5019841;28;20276;-51
2022/08/01 02:46:38;;;;;;;9.37;6.17;;;20.00;99.90;;;;;;5017108;28;20204;-52
2022/08/01 02:49:08;;;;;;;10.37;5.70;;;19.90;99.90;;;;;;5020559;28;20671;-49
2022/08/01 02:51:37;;;;;;;9.40;5.63;;;19.80;99.90;;;;;;5020819;28;20568;-50
2022/08/01 02:54:06;;;;;;;11.10;6.37;;;19.90;99.90;;;;;;5015043;28;20233;-51
2022/08/01 02:56:35;;;;;;;9.93;5.97;;;19.70;99.90;;;;;;5020582;28;20660;-50
2022/08/01 02:59:09;;;;;;;7.17;5.23;;;19.70;99.90;;;;;;5003595;28;20219;-51
2022/08/01 03:01:36;;;;;;;9.90;6.40;;;19.70;99.90;;;;;;5019996;28;20203;-51
2022/08/01 03:04:05;;;;;;;7.93;5.53;;;19.50;99.90;;;;;;5020091;28;20294;-50
2022/08/01 03:06:33;;;;;;;9.37;5.80;;;19.60;99.90;;;;;;5019626;28;20207;-51
2022/08/01 03:09:03;;;;;;;11.83;5.47;;;19.60;99.90;;;;;;5020739;28;20208;-51
2022/08/01 03:11:34;;;;;;;8.03;5.50;;;19.70;99.90;;;;;;5020475;28;20603;-51
2022/08/01 03:14:06;;;;;;;7.47;5.30;;;19.80;99.90;;;;;;5019731;28;20262;-50
2022/08/01 03:16:36;;;;;;;9.10;5.77;;;19.70;99.90;;;;;;5018066;28;20544;-51
2022/08/01 03:19:04;;;;;;;12.70;6.53;;;19.70;99.90;;;;;;5020653;28;20203;-50
2022/08/01 03:21:32;;;;;;;8.53;5.50;;;19.70;99.90;;;;;;5019629;28;20204;-50
2022/08/01 03:24:01;;;;;;;7.80;5.20;;;19.70;99.90;;;;;;5015092;28;20879;-51
2022/08/01 03:26:30;;;;;;;9.57;5.93;;;19.70;99.90;;;;;;5018809;28;20258;-51
2022/08/01 03:29:06;;;;;;;11.73;6.10;;;19.70;99.90;;;;;;5018052;28;20209;-51
2022/08/01 03:31:38;;;;;;;7.27;5.17;;;19.70;99.90;;;;;;5015389;28;20228;-51
2022/08/01 03:34:06;;;;;;;7.17;5.40;;;19.70;99.90;;;;;;5018613;28;20665;-52
2022/08/01 03:36:42;;;;;;;9.50;5.70;;;19.60;99.90;;;;;;5019997;28;20208;-51
2022/08/01 03:39:11;;;;;;;9.83;6.07;;;19.70;99.90;;;;;;5019941;28;20687;-51
2022/08/01 03:41:41;;;;;;;8.40;4.97;;;19.60;99.90;;;;;;5017297;28;20212;-51
2022/08/01 03:44:17;;;;;;;8.80;5.70;;;19.50;99.90;;;;;;5013801;28;20754;-50
2022/08/01 03:46:50;;;;;;;8.07;5.47;;;19.60;99.90;;;;;;5017927;28;20211;-51
2022/08/01 03:49:21;;;;;;;10.63;6.20;;;19.70;99.90;;;;;;5019147;28;20247;-51
2022/08/01 03:51:50;;;;;;;9.80;5.13;;;19.50;99.90;;;;;;5018371;28;20227;-50
2022/08/01 03:54:22;;;;;;;10.20;6.37;;;19.40;99.90;;;;;;5019183;28;20232;-51
2022/08/01 03:56:52;;;;;;;12.10;6.07;;;19.50;99.90;;;;;;5018676;28;20205;-51
2022/08/01 03:59:23;;;;;;;10.37;6.17;;;19.50;99.90;;;;;;5018012;28;20254;-51
2022/08/01 04:01:50;;;;;;;8.67;5.47;;;19.50;99.90;;;;;;5018631;28;20213;-50
2022/08/01 04:04:17;;;;;;;9.27;6.03;;;19.40;99.90;;;;;;5019507;28;20210;-51
2022/08/01 04:06:44;;;;;;;9.77;5.90;;;19.30;99.90;;;;;;5020327;28;20740;-50
2022/08/01 04:09:12;;;;;;;10.80;6.07;;;19.20;99.90;;;;;;5017947;28;20221;-50
2022/08/01 04:11:40;;;;;;;12.00;5.90;;;19.30;99.90;;;;;;5019773;28;20672;-51
2022/08/01 04:14:08;;;;;;;8.43;5.93;;;19.30;99.90;;;;;;5016729;28;20219;-50
2022/08/01 04:16:38;;;;;;;10.07;6.00;;;19.30;99.90;;;;;;5019083;28;20257;-50
2022/08/01 04:19:08;;;;;;;11.00;6.67;;;19.40;99.90;;;;;;5016194;28;20855;-50
2022/08/01 04:21:36;;;;;;;10.07;5.93;;;19.40;99.90;;;;;;5017824;28;20216;-50
2022/08/01 04:24:14;;;;;;;7.40;4.90;;;19.30;99.90;;;;;;5018714;28;20201;-52
2022/08/01 04:26:45;;;;;;;11.13;5.57;;;19.40;99.90;;;;;;5019223;28;20616;-52
2022/08/01 04:29:15;;;;;;;9.97;4.77;;;19.40;99.90;;;;;;5018785;28;20234;-52
2022/08/01 04:31:45;;;;;;;5.70;4.77;;;19.40;99.90;;;;;;5017856;28;20218;-50
2022/08/01 04:34:16;;;;;;;9.27;5.17;;;19.40;99.90;;;;;;5019318;28;20212;-50
2022/08/01 04:36:45;;;;;;;6.03;4.57;;;19.50;99.90;;;;;;5022181;28;20303;-51
2022/08/01 04:39:15;;;;;;;8.87;5.30;;;19.50;99.90;;;;;;5022925;28;20209;-50
2022/08/01 04:41:43;;;;;;;7.47;4.87;;;19.40;99.90;;;;;;5018541;28;20230;-51
2022/08/01 04:44:10;;;;;;;8.43;4.67;;;19.30;99.90;;;;;;5022847;28;20243;-51
2022/08/01 04:46:39;;;;;;;9.80;4.50;;;19.40;99.90;;;;;;5021943;28;20216;-50
2022/08/01 04:49:08;;;;;;;10.10;4.43;;;19.40;99.90;;;;;;5020130;28;20222;-50
2022/08/01 04:51:36;;;;;;;8.47;4.67;;;19.50;99.90;;;;;;5022809;28;20559;-52
2022/08/01 04:54:03;;;;;;;7.07;4.43;;;19.50;99.90;;;;;;5018047;28;20230;-52
2022/08/01 04:56:30;;;;;;;4.63;3.67;;;19.70;99.90;;;;;;5021044;28;20209;-52
2022/08/01 05:01:49;;;;;;;5.83;4.00;;;19.80;99.90;;;;;;5021686;28;20212;-51
2022/08/01 05:04:16;;;;;;;5.73;3.47;;;19.70;99.90;;;;;;5022960;28;20201;-52
2022/08/01 05:06:43;;;;;;;6.17;3.97;;;19.70;99.90;;;;;;5022658;28;20209;-51
2022/08/01 05:09:10;;;;;;;6.07;4.10;;;19.70;99.90;;;;;;5021816;28;20311;-51
2022/08/01 05:11:37;;;;;;;6.27;3.83;;;19.70;99.90;;;;;;5016052;28;20205;-53
2022/08/01 05:14:04;;;;;;;5.87;4.13;;;19.80;99.90;;;;;;5022171;28;20197;-51
2022/08/01 05:16:31;;;;;;;5.70;3.70;;;19.80;99.90;;;;;;5015569;28;20232;-52
2022/08/01 05:18:58;;;;;;;7.43;3.57;;;19.90;99.90;;;;;;5019449;28;20218;-51
2022/08/01 05:21:25;;;;;;;4.63;3.70;;;19.90;99.90;;;;;;5015872;28;20205;-50
2022/08/01 05:23:52;;;;;;;5.97;3.77;;;19.90;99.90;;;;;;5019674;28;20557;-51
2022/08/01 05:26:19;;;;;;;5.73;3.90;;;20.00;99.90;;;;;;5016830;28;20213;-52
2022/08/01 05:28:46;;;;;;;4.93;3.73;;;19.90;99.90;;;;;;5019489;28;20623;-52
2022/08/01 05:31:13;;;;;;;6.40;3.30;;;19.90;99.90;;;;;;5004358;28;20208;-52
2022/08/01 05:33:40;;;;;;;5.90;3.93;;;20.00;99.90;;;;;;5020961;28;20217;-52
2022/08/01 05:36:08;;;;;;;5.10;3.40;;;20.10;99.90;;;;;;5021160;28;20282;-51
2022/08/01 05:38:35;;;;;;;5.33;2.80;;;20.10;99.90;;;;;;5019840;28;20212;-51
2022/08/01 05:41:02;;;;;;;6.10;3.20;;;20.00;99.90;;;;;;5016707;28;20613;-52
2022/08/01 05:43:29;;;;;;;3.70;2.63;;;20.10;99.90;;;;;;5019966;28;20213;-51
2022/08/01 05:45:56;;;;;;;4.03;2.80;;;20.10;99.90;;;;;;5015569;28;20204;-52
2022/08/01 05:48:24;;;;;;;3.67;2.50;;;20.00;99.90;;;;;;5021027;28;20549;-52
2022/08/01 05:50:51;;;;;;;3.13;2.40;;;20.00;99.90;;;;;;5016606;28;21027;-51
2022/08/01 05:53:24;;;;;;;3.83;2.40;;;19.90;99.90;;;;;;5022392;28;20236;-53
2022/08/01 05:55:51;;;;;;;7.03;3.80;;;20.00;99.90;;;;;;5018849;28;20666;-57
2022/08/01 05:58:18;;;;;;;5.80;2.70;;;19.80;99.90;;;;;;5019088;28;20205;-51
2022/08/01 06:00:46;;;;;;;5.87;2.70;;;19.70;99.90;;;;;;5007598;28;20219;-53
2022/08/01 06:03:14;;;;;;;3.47;2.47;;;19.70;99.90;;;;;;5021411;28;20756;-51
2022/08/01 06:05:41;;;;;;;5.17;2.77;;;19.80;99.90;;;;;;5021973;28;20205;-51
2022/08/01 06:08:08;;;;;;;3.40;2.70;;;19.80;99.90;;;;;;5021487;28;20245;-50
2022/08/01 06:10:38;;;;;;;4.90;2.67;;;19.90;99.90;;;;;;5020792;28;20718;-51
2022/08/01 06:13:05;;;;;;;4.07;2.90;;;20.00;99.90;;;;;;5019269;28;20193;-51
2022/08/01 06:15:32;;;;;;;5.60;2.83;;;19.90;99.90;;;;;;5020221;28;20205;-51
2022/08/01 06:18:00;;;;;;;3.40;3.00;;;19.80;99.90;;;;;;5020303;28;20227;-50
2022/08/01 06:20:27;;;;;;;6.63;3.50;;;19.90;99.90;;;;;;5019827;28;20205;-51
2022/08/01 06:22:54;;;;;;;3.60;2.73;;;19.90;99.90;;;;;;5020267;28;20210;-51
2022/08/01 06:25:22;;;;;;;3.57;2.67;;;20.10;99.90;;;;;;5019238;28;20217;-51
2022/08/01 06:27:49;;;;;;;3.87;3.57;;;20.00;99.90;;;;;;5013889;28;20453;-53
2022/08/01 06:30:16;;;;;;;4.10;2.83;;;20.10;99.90;;;;;;5018309;28;20574;-52
2022/08/01 06:32:43;;;;;;;3.87;2.37;;;20.20;99.90;;;;;;5020076;28;20257;-50
2022/08/01 06:35:10;;;;;;;2.40;2.20;;;20.10;99.90;;;;;;5019189;28;20193;-52
2022/08/01 06:37:37;;;;;;;4.63;2.60;;;20.10;99.90;;;;;;5019866;28;20638;-50
2022/08/01 06:40:06;;;;;;;3.63;2.30;;;20.10;99.90;;;;;;5020516;28;20716;-51
2022/08/01 06:42:37;;;;;;;3.63;2.50;;;20.20;99.90;;;;;;5020885;28;20600;-51
2022/08/01 06:45:10;;;;;;;5.93;2.50;;;20.20;99.90;;;;;;5018682;28;20216;-51
2022/08/01 06:47:39;;;;;;;4.67;3.23;;;20.10;99.90;;;;;;5020132;28;20267;-52
2022/08/01 06:50:08;;;;;;;3.70;2.50;;;20.00;99.90;;;;;;5019510;28;20233;-57
2022/08/01 06:52:37;;;;;;;4.33;3.13;;;20.00;99.90;;;;;;5020611;28;20207;-51
2022/08/01 06:55:05;;;;;;;4.57;3.20;;;20.00;99.90;;;;;;5035096;28;20271;-52
2022/08/01 06:57:33;;;;;;;4.50;2.97;;;20.10;99.90;;;;;;5015159;28;20670;-51
2022/08/01 07:00:12;;;;;;;4.90;3.20;;;20.10;99.90;;;;;;5020220;28;20296;-52
2022/08/01 07:02:39;;;;;;;3.60;3.23;;;20.20;99.90;;;;;;5018383;28;20243;-51
2022/08/01 07:05:07;;;;;;;6.73;3.53;;;20.20;99.90;;;;;;5018236;28;20284;-51
2022/08/01 07:07:34;;;;;;;4.13;3.73;;;20.10;99.90;;;;;;5020292;28;20257;-51
2022/08/01 07:10:02;;;;;;;4.90;4.20;;;20.30;99.90;;;;;;5020305;28;20622;-51
2022/08/01 07:12:30;;;;;;;5.63;4.13;;;20.40;99.90;;;;;;5019235;28;20312;-51
2022/08/01 07:14:57;;;;;;;4.60;4.20;;;20.50;99.90;;;;;;5020459;28;20652;-51
2022/08/01 07:17:24;;;;;;;5.20;4.63;;;20.50;99.90;;;;;;5016947;28;20220;-51
2022/08/01 07:19:51;;;;;;;5.57;4.40;;;20.40;99.90;;;;;;5020228;28;20204;-50
2022/08/01 07:22:18;;;;;;;5.70;4.20;;;20.50;99.90;;;;;;5018351;28;20661;-51
2022/08/01 07:24:49;;;;;;;4.47;4.07;;;20.50;99.90;;;;;;5020195;28;20301;-51
2022/08/01 07:27:23;;;;;;;8.00;5.20;;;20.60;99.90;;;;;;5020695;28;20288;-52
2022/08/01 07:29:52;;;;;;;5.53;5.03;;;20.50;99.90;;;;;;5019966;28;20255;-52
2022/08/01 07:32:19;;;;;;;5.63;5.13;;;20.70;99.90;;;;;;5017056;28;20635;-52
2022/08/01 07:34:46;;;;;;;6.87;4.83;;;20.60;99.90;;;;;;5015543;28;20212;-51
2022/08/01 07:37:13;;;;;;;5.43;4.93;;;20.60;99.90;;;;;;5017716;28;20228;-51
2022/08/01 07:39:40;;;;;;;4.83;4.00;;;20.70;99.90;;;;;;5018904;28;20214;-51
2022/08/01 07:42:07;;;;;;;3.90;3.60;;;20.80;99.90;;;;;;5017880;28;20611;-51
2022/08/01 07:44:36;;;;;;;5.50;3.90;;;20.80;99.90;;;;;;5016176;28;20240;-51
2022/08/01 07:47:07;;;;;;;3.90;3.47;;;20.80;99.90;;;;;;5020254;28;20679;-51
2022/08/01 07:49:35;;;;;;;3.77;3.30;;;21.00;99.90;;;;;;5019516;28;20245;-50
2022/08/01 07:52:06;;;;;;;3.57;3.27;;;20.90;99.90;;;;;;5018810;28;20210;-52
2022/08/01 07:54:34;;;;;;;4.10;3.70;;;20.90;99.90;;;;;;5018307;28;20255;-50
2022/08/01 07:57:02;;;;;;;4.43;3.83;;;20.90;99.90;;;;;;5019253;28;20296;-51
2022/08/01 07:59:30;;;;;;;3.67;3.37;;;21.10;99.90;;;;;;5019177;28;20222;-52
2022/08/01 08:01:57;;;;;;;4.40;3.40;;;21.00;99.90;;;;;;5013375;28;20214;-50
2022/08/01 08:04:27;;;;;;;3.00;2.67;;;21.00;99.90;;;;;;5019481;28;20208;-52
2022/08/01 08:06:54;;;;;;;2.60;2.40;;;21.10;99.90;;;;;;5014785;28;20210;-50
2022/08/01 08:09:21;;;;;;;3.43;2.30;;;21.30;99.90;;;;;;5021556;28;20619;-50
2022/08/01 08:11:49;;;;;;;3.73;2.23;;;21.50;99.90;;;;;;5005932;28;20209;-51
2022/08/01 08:14:17;;;;;;;3.87;1.90;;;21.60;99.90;;;;;;5006384;28;20645;-51
2022/08/01 08:16:47;;;;;;;2.07;1.60;;;21.70;99.90;;;;;;5022063;28;20202;-50
2022/08/01 08:19:14;;;;;;;3.93;1.97;;;22.00;99.90;;;;;;5023863;28;20577;-51
2022/08/01 08:21:42;;;;;;;4.17;1.67;;;22.20;99.90;;;;;;5022669;28;20215;-51
2022/08/01 08:24:24;;;;;;;1.10;1.00;;;21.80;99.90;;;;;;5022850;28;20207;-52
2022/08/01 08:27:03;;;;;;;1.07;0.97;;;21.70;99.90;;;;;;5023566;28;20212;-52
2022/08/01 08:29:33;;;;;;;0.93;0.83;;;21.50;99.90;;;;;;5021708;28;20212;-52
2022/08/01 08:32:01;;;;;;;3.17;0.90;;;21.80;99.90;;;;;;5019596;28;20209;-52
2022/08/01 08:34:29;;;;;;;1.63;1.07;;;22.00;99.90;;;;;;5023405;28;20549;-52
2022/08/01 08:36:57;;;;;;;1.00;0.90;;;22.20;99.90;;;;;;5023895;28;20661;-51
2022/08/01 08:39:25;;;;;;;1.10;0.93;;;22.00;99.90;;;;;;5022583;28;20208;-51
2022/08/01 08:41:52;;;;;;;1.47;1.00;;;21.90;99.90;;;;;;5021147;28;20206;-51
2022/08/01 08:44:22;;;;;;;1.53;1.20;;;21.90;99.90;;;;;;5005440;28;20209;-51
2022/08/01 08:46:51;;;;;;;0.83;0.73;;;21.80;99.90;;;;;;5020520;28;20204;-51
2022/08/01 08:49:27;;;;;;;1.00;0.90;;;22.00;99.90;;;;;;5022226;28;20258;-51
2022/08/01 08:52:04;;;;;;;0.97;0.90;;;21.50;99.90;;;;;;5022517;28;20232;-51
2022/08/01 08:54:36;;;;;;;1.53;1.20;;;21.50;99.90;;;;;;5021794;28;20324;-51
2022/08/01 08:57:05;;;;;;;3.07;0.90;;;21.40;99.90;;;;;;5023091;28;20204;-51
2022/08/01 08:59:32;;;;;;;1.53;1.10;;;21.50;99.90;;;;;;5022128;28;20206;-51
2022/08/01 09:01:59;;;;;;;1.53;0.90;;;21.90;99.90;;;;;;5021634;28;20727;-51
2022/08/01 09:04:27;;;;;;;1.27;1.10;;;22.20;99.90;;;;;;5020949;28;20201;-52
2022/08/01 09:06:54;;;;;;;1.50;0.90;;;22.20;99.90;;;;;;5017513;28;20287;-50
2022/08/01 09:09:22;;;;;;;2.13;1.10;;;22.30;99.90;;;;;;5022224;28;20309;-51
2022/08/01 09:11:50;;;;;;;2.90;1.00;;;22.60;99.90;;;;;;5022340;28;20214;-50
2022/08/01 09:14:26;;;;;;;1.40;1.00;;;22.60;99.90;;;;;;5022763;28;20202;-51
2022/08/01 09:17:01;;;;;;;1.13;0.87;;;22.50;99.90;;;;;;5016295;28;20733;-51
2022/08/01 09:19:39;;;;;;;1.13;0.90;;;22.70;99.90;;;;;;5021945;28;20693;-53
2022/08/01 09:22:10;;;;;;;1.50;0.90;;;22.80;99.90;;;;;;5018247;28;20291;-52
2022/08/01 09:24:39;;;;;;;1.37;0.90;;;22.80;99.90;;;;;;5022626;28;20666;-52
2022/08/01 09:27:18;;;;;;;0.83;0.70;;;22.80;99.90;;;;;;5020271;28;20204;-52
2022/08/01 09:29:47;;;;;;;1.20;1.07;;;22.50;99.90;;;;;;5016973;28;20219;-53
2022/08/01 09:32:28;;;;;;;2.20;0.87;;;22.50;99.90;;;;;;5022261;28;20202;-51
2022/08/01 09:35:34;;;;;;;1.10;0.80;;;22.50;99.90;;;;;;5021299;28;20206;-47
2022/08/01 09:38:17;;;;;;;1.50;0.83;;;22.40;99.90;;;;;;5021720;28;20616;-49
2022/08/01 09:40:54;;;;;;;2.30;0.90;;;22.00;99.90;;;;;;5053420;28;20205;-49
2022/08/01 09:43:26;;;;;;;1.80;0.73;;;22.00;99.90;;;;;;5020592;28;20596;-49
2022/08/01 09:45:58;;;;;;;1.53;0.97;;;21.40;99.90;;;;;;5021711;28;20614;-50
2022/08/01 09:48:28;;;;;;;1.30;1.07;;;21.10;99.90;;;;;;5019055;28;20203;-50
2022/08/01 09:50:58;;;;;;;0.73;0.73;;;21.20;99.90;;;;;;5015502;28;20240;-48
2022/08/01 09:53:45;;;;;;;0.83;0.70;;;21.40;99.90;;;;;;5021179;28;20544;-49
2022/08/01 09:56:17;;;;;;;1.33;0.80;;;21.20;99.90;;;;;;5021296;28;20204;-49
2022/08/01 09:58:59;;;;;;;1.57;0.67;;;21.20;99.90;;;;;;5016263;28;20842;-49
2022/08/01 10:01:49;;;;;;;2.07;0.97;;;21.40;99.90;;;;;;5019059;28;20567;-48
2022/08/01 10:04:21;;;;;;;1.80;0.80;;;21.50;99.90;;;;;;5021606;28;20204;-49
2022/08/01 10:06:52;;;;;;;3.10;1.10;;;21.40;99.90;;;;;;5028580;28;20248;-49
2022/08/01 10:09:30;;;;;;;1.40;1.13;;;21.10;99.90;;;;;;5021475;28;20684;-50
2022/08/01 10:12:07;;;;;;;0.90;0.80;;;20.90;99.90;;;;;;5020956;28;20205;-49
2022/08/01 10:14:42;;;;;;;0.73;0.50;;;20.80;99.90;;;;;;5021092;28;20652;-49
2022/08/01 10:17:18;;;;;;;1.67;0.50;;;20.80;99.90;;;;;;5020711;28;20653;-49
2022/08/01 10:19:49;;;;;;;0.63;0.50;;;20.60;99.90;;;;;;5015317;28;20573;-49
2022/08/01 10:22:23;;;;;;;0.80;0.50;;;20.50;99.90;;;;;;5019906;28;20213;-48
2022/08/01 10:24:55;;;;;;;0.80;0.57;;;20.40;99.90;;;;;;5014595;28;20221;-49
2022/08/01 10:27:24;;;;;;;0.60;0.60;;;20.50;99.90;;;;;;5020578;28;20213;-49
2022/08/01 10:30:07;;;;;;;1.37;0.70;;;20.70;99.90;;;;;;5020334;28;20235;-48
2022/08/01 10:32:48;;;;;;;2.00;0.97;;;20.60;99.90;;;;;;5019995;28;20212;-50
2022/08/01 10:35:18;;;;;;;1.07;0.90;;;20.70;99.90;;;;;;5004644;28;20315;-48
2022/08/01 10:38:08;;;;;;;1.43;0.80;;;20.30;99.90;;;;;;5006126;28;20660;-49
2022/08/01 10:40:41;;;;;;;1.43;0.80;;;19.80;99.90;;;;;;5020178;28;20211;-49
2022/08/01 10:43:10;;;;;;;3.77;0.90;;;19.60;99.90;;;;;;5021394;28;20213;-47
2022/08/01 10:45:39;;;;;;;1.90;0.90;;;19.60;99.90;;;;;;5020511;28;20711;-47
2022/08/01 10:48:47;;;;;;;2.33;0.90;;;19.50;99.90;;;;;;5019319;28;20205;-49
2022/08/01 10:51:15;;;;;;;1.67;0.90;;;19.50;99.90;;;;;;5018592;28;20240;-48
2022/08/01 10:53:53;;;;;;;2.83;1.10;;;19.40;99.90;;;;;;5020774;28;20299;-49
2022/08/01 10:56:23;;;;;;;2.23;1.10;;;19.60;99.90;;;;;;5021192;28;20668;-49
2022/08/01 10:59:02;;;;;;;2.70;1.57;;;19.90;99.90;;;;;;5021317;28;20270;-50
2022/08/01 11:01:38;;;;;;;1.40;1.20;;;20.30;99.90;;;;;;5017963;28;20665;-48
2022/08/01 11:04:15;;;;;;;2.50;1.50;;;20.30;99.90;;;;;;5003655;28;20295;-49
2022/08/01 11:07:02;;;;;;;4.30;1.97;;;20.60;99.90;;;;;;5021188;28;20221;-48
2022/08/01 11:09:42;;;;;;;2.20;1.40;;;20.50;99.90;;;;;;5019032;28;20617;-52
2022/08/01 11:12:18;;;;;;;6.20;1.47;;;20.30;99.90;;;;;;5020297;28;20415;-52
2022/08/01 11:15:00;;;;;;;7.37;1.50;;;20.20;99.90;;;;;;5020109;28;20801;-51
2022/08/01 11:17:37;;;;;;;3.57;1.60;;;20.20;99.90;;;;;;5019584;28;20211;-52
2022/08/01 11:20:13;;;;;;;4.60;1.70;;;20.10;99.90;;;;;;5019751;28;20662;-50
2022/08/01 11:23:05;;;;;;;1.87;1.60;;;20.20;99.90;;;;;;5020120;28;20702;-50
2022/08/01 11:25:36;;;;;;;2.83;1.50;;;20.40;99.90;;;;;;5019027;28;20210;-51
2022/08/01 11:28:25;;;;;;;2.20;1.53;;;20.50;99.90;;;;;;5020904;28;20207;-48
2022/08/01 11:31:07;;;;;;;4.47;1.90;;;20.60;99.90;;;;;;5019859;28;20262;-49
2022/08/01 11:33:44;;;;;;;2.73;1.50;;;20.80;99.90;;;;;;5019262;28;20660;-51
2022/08/01 11:36:13;;;;;;;4.43;2.07;;;21.00;99.90;;;;;;5014363;28;20750;-50
2022/08/01 11:38:46;;;;;;;2.03;1.73;;;21.30;99.90;;;;;;5017249;28;20218;-50
2022/08/01 11:41:25;;;;;;;4.87;2.33;;;21.70;99.90;;;;;;5026533;28;20351;-52
2022/08/01 11:44:13;;;;;;;5.03;2.03;;;22.00;99.90;;;;;;5018843;28;20672;-52
2022/08/01 11:46:55;;;;;;;4.80;2.00;;;22.00;99.90;;;;;;5033690;28;20267;-51
2022/08/01 11:49:40;;;;;;;5.37;1.93;;;22.30;99.90;;;;;;5019235;28;20257;-51
2022/08/01 11:52:11;;;;;;;2.90;1.87;;;21.80;99.90;;;;;;5013507;28;20283;-50
2022/08/01 11:55:00;;;;;;;3.57;2.23;;;21.70;99.90;;;;;;5018618;28;20221;-51
2022/08/01 11:57:30;;;;;;;2.97;1.80;;;21.70;99.90;;;;;;5018581;28;20244;-51
2022/08/01 12:00:11;;;;;;;2.90;1.73;;;22.10;99.90;;;;;;5019266;28;20208;-52
2022/08/01 12:02:47;;;;;;;3.87;2.20;;;21.90;99.90;;;;;;5019668;28;20221;-51
2022/08/01 12:05:20;;;;;;;5.17;2.10;;;21.60;99.90;;;;;;5013586;28;20212;-50
2022/08/01 12:07:52;;;;;;;3.53;1.67;;;21.40;99.90;;;;;;5020026;28;20672;-51
2022/08/01 12:10:22;;;;;;;4.33;2.07;;;21.40;99.90;;;;;;5034298;28;20225;-51
2022/08/01 12:12:51;;;;;;;4.43;1.93;;;21.10;99.90;;;;;;5016884;28;20627;-52
2022/08/01 12:15:24;;;;;;;3.53;2.00;;;21.10;99.90;;;;;;5014724;28;20205;-52
2022/08/01 12:17:57;;;;;;;5.87;1.63;;;21.00;99.90;;;;;;5018335;28;20220;-52
2022/08/01 12:20:34;;;;;;;4.00;1.70;;;21.40;99.90;;;;;;5019654;28;20615;-49
2022/08/01 12:23:07;;;;;;;3.77;1.80;;;21.80;99.90;;;;;;5018722;28;20204;-50
2022/08/01 12:25:35;;;;;;;3.40;1.40;;;21.60;99.90;;;;;;5019554;28;20240;-52
2022/08/01 12:28:07;;;;;;;3.17;1.90;;;22.20;99.90;;;;;;5015478;28;20204;-50
2022/08/01 12:30:41;;;;;;;4.17;2.03;;;22.60;99.90;;;;;;5019338;28;20721;-51
2022/08/01 12:33:17;;;;;;;3.30;1.93;;;22.60;99.90;;;;;;5018632;28;20703;-50
2022/08/01 12:35:45;;;;;;;5.57;2.07;;;22.80;99.90;;;;;;5016986;28;20205;-50
2022/08/01 12:38:22;;;;;;;6.60;2.20;;;22.80;99.90;;;;;;5016282;28;20550;-50
2022/08/01 12:40:52;;;;;;;5.17;2.07;;;22.80;99.90;;;;;;5026628;28;20215;-50
2022/08/01 12:43:31;;;;;;;4.10;1.90;;;23.20;99.90;;;;;;5018981;28;20206;-50
2022/08/01 12:46:00;;;;;;;5.40;1.67;;;23.90;99.90;;;;;;5033856;28;20213;-51
2022/08/01 12:48:31;;;;;;;5.43;1.70;;;24.10;99.90;;;;;;5044087;28;20670;-52
2022/08/01 12:51:02;;;;;;;3.87;1.60;;;24.20;99.90;;;;;;5019730;28;20241;-51
2022/08/01 12:53:34;;;;;;;6.13;1.43;;;24.30;99.90;;;;;;5018584;28;20202;-53
2022/08/01 12:56:09;;;;;;;9.23;1.80;;;24.40;99.90;;;;;;5020206;28;20211;-53
2022/08/01 12:58:39;;;;;;;4.40;1.80;;;24.10;99.90;;;;;;5022051;28;20219;-53
2022/08/01 13:01:12;;;;;;;7.23;2.67;;;23.40;99.90;;;;;;5019973;28;20222;-52
2022/08/01 13:03:40;;;;;;;4.97;1.70;;;23.20;99.90;;;;;;5029423;28;20212;-51
2022/08/01 13:06:14;;;;;;;4.10;1.93;;;23.00;99.90;;;;;;5021045;28;20221;-52
2022/08/01 13:08:43;;;;;;;3.40;1.90;;;23.20;99.90;;;;;;5022773;28;20210;-51
2022/08/01 13:11:15;;;;;;;3.63;1.87;;;22.50;99.90;;;;;;5021074;28;20704;-51